Time;durP1;ratioP1;P1;durP2;ratioP2;P2;SDS_P1;SDS_P2;PMS_P1;PMS_P2;Temp;Humidity;BMP_temperature;BMP_pressure;BME280_temperature;BME280_humidity;BME280_pressure;Samples;Min_cycle;Max_cycle;Signal;HPM_P1;HPM_P2
2021/12/10 00:02:09;;;;;;;181.20;28.30;;;;;;;3.29;100.00;99299.41;5083678;28;20236;-77
2021/12/10 00:04:38;;;;;;;153.40;25.10;;;;;;;2.98;100.00;99271.97;5091372;28;20255;-79
2021/12/10 00:07:09;;;;;;;198.83;30.77;;;;;;;2.96;100.00;99253.13;5091450;28;20285;-77
2021/12/10 00:09:40;;;;;;;355.80;33.80;;;;;;;3.30;100.00;99301.16;5091812;28;20207;-78
2021/12/10 00:12:11;;;;;;;190.87;30.53;;;;;;;3.46;100.00;99302.50;5091440;28;20729;-78
2021/12/10 00:14:39;;;;;;;162.90;30.07;;;;;;;3.41;100.00;99292.09;5074840;28;20719;-80
2021/12/10 00:17:08;;;;;;;266.60;34.93;;;;;;;3.48;100.00;99286.34;5071154;28;20191;-79
2021/12/10 00:19:40;;;;;;;272.80;31.57;;;;;;;3.38;100.00;99299.72;5072163;28;20230;-78
2021/12/10 00:22:12;;;;;;;159.17;28.13;;;;;;;2.95;100.00;99230.06;5071381;28;20199;-79
2021/12/10 00:24:41;;;;;;;215.00;32.13;;;;;;;3.40;100.00;99307.41;5071273;28;20223;-77
2021/12/10 00:27:09;;;;;;;430.83;33.60;;;;;;;3.39;100.00;99288.63;5070998;28;20187;-80
2021/12/10 00:29:42;;;;;;;195.10;30.60;;;;;;;3.57;100.00;99288.28;5071360;28;20218;-78
2021/12/10 00:32:18;;;;;;;146.47;24.37;;;;;;;3.39;100.00;99285.19;5071057;28;20281;-77
2021/12/10 00:34:49;;;;;;;133.13;27.17;;;;;;;3.41;100.00;99281.84;5070861;28;20244;-80
2021/12/10 00:37:19;;;;;;;151.43;23.33;;;;;;;3.30;100.00;99279.78;5071132;28;20202;-79
2021/12/10 00:39:52;;;;;;;273.77;30.17;;;;;;;3.41;100.00;99276.75;5071213;28;20238;-80
2021/12/10 00:42:22;;;;;;;299.20;32.07;;;;;;;3.50;100.00;99294.06;5070976;28;20199;-78
2021/12/10 00:44:51;;;;;;;145.70;29.47;;;;;;;3.45;100.00;99288.81;5073691;28;20635;-79
2021/12/10 00:47:18;;;;;;;188.57;27.23;;;;;;;3.03;100.00;99228.59;5074412;28;20191;-77
2021/12/10 00:49:45;;;;;;;294.87;31.07;;;;;;;3.09;100.00;99221.09;5078488;28;20213;-79
2021/12/10 00:52:14;;;;;;;195.20;29.07;;;;;;;3.45;100.00;99270.00;5095283;28;20244;-78
2021/12/10 00:54:42;;;;;;;223.03;30.63;;;;;;;3.48;100.00;99264.97;5094865;28;20198;-77
2021/12/10 00:57:10;;;;;;;100.93;22.67;;;;;;;3.35;100.00;99279.09;5094518;28;20190;-78
2021/12/10 00:59:38;;;;;;;141.70;27.40;;;;;;;3.39;100.00;99255.31;5090899;28;20226;-77
2021/12/10 01:02:10;;;;;;;139.97;27.07;;;;;;;3.50;100.00;99261.63;5093801;28;20256;-77
2021/12/10 01:04:40;;;;;;;161.90;28.87;;;;;;;3.48;100.00;99257.28;5081934;28;20197;-78
2021/12/10 01:07:10;;;;;;;228.03;29.10;;;;;;;3.53;100.00;99257.44;5091666;28;20198;-77
2021/12/10 01:09:41;;;;;;;226.83;30.13;;;;;;;3.46;100.00;99267.47;5090037;28;20190;-79
2021/12/10 01:12:11;;;;;;;251.03;30.70;;;;;;;3.50;100.00;99279.56;5074297;28;20195;-78
2021/12/10 01:14:56;;;;;;;226.97;31.67;;;;;;;3.32;100.00;99248.25;5073047;28;20195;-78
2021/12/10 01:25:55;;;;;;;271.80;31.03;;;;;;;3.65;100.00;99250.09;5094394;28;20202;-79
2021/12/10 01:28:23;;;;;;;218.10;28.97;;;;;;;3.74;100.00;99264.06;5094145;28;20205;-81
2021/12/10 01:30:50;;;;;;;321.43;35.13;;;;;;;3.84;100.00;99265.16;5093848;28;20255;-78
2021/12/10 01:33:20;;;;;;;227.90;30.50;;;;;;;3.43;100.00;99159.78;5094115;28;20589;-77
2021/12/10 01:35:53;;;;;;;222.10;30.57;;;;;;;3.95;100.00;99225.31;5093698;28;20825;-80
2021/12/10 01:38:21;;;;;;;239.93;30.37;;;;;;;3.87;100.00;99237.94;5093725;28;20194;-77
2021/12/10 01:40:52;;;;;;;219.97;31.53;;;;;;;3.87;100.00;99222.53;5093742;28;20222;-80
2021/12/10 01:43:23;;;;;;;272.13;31.47;;;;;;;3.88;100.00;99225.97;5093898;28;20186;-79
2021/12/10 01:45:53;;;;;;;128.27;29.57;;;;;;;3.91;100.00;99220.94;5092863;28;20248;-79
2021/12/10 01:48:26;;;;;;;259.80;31.40;;;;;;;3.79;100.00;99215.44;5093495;28;20640;-79
2021/12/10 01:50:55;;;;;;;151.30;30.53;;;;;;;3.45;100.00;99159.84;5093751;28;20198;-78
2021/12/10 01:53:27;;;;;;;130.77;31.27;;;;;;;3.90;100.00;99220.06;5093293;28;20193;-78
2021/12/10 01:55:57;;;;;;;101.77;27.70;;;;;;;3.90;100.00;99234.56;5093458;28;20190;-80
2021/12/10 01:58:26;;;;;;;135.90;24.13;;;;;;;3.72;100.00;99241.75;5088376;28;20191;-79
2021/12/10 02:00:56;;;;;;;289.50;28.20;;;;;;;3.69;100.00;99231.41;5072990;28;20237;-80
2021/12/10 02:03:25;;;;;;;95.77;25.23;;;;;;;3.71;100.00;99222.09;5073235;28;20210;-78
2021/12/10 02:05:52;;;;;;;120.47;26.37;;;;;;;3.27;100.00;99151.63;5075617;28;20197;-79
2021/12/10 02:08:19;;;;;;;105.67;25.50;;;;;;;3.38;100.00;99155.38;5091794;28;20204;-78
2021/12/10 02:10:47;;;;;;;292.40;27.90;;;;;;;3.86;100.00;99237.88;5089186;28;20582;-79
2021/12/10 02:13:15;;;;;;;136.97;23.70;;;;;;;3.81;100.00;99224.06;5093674;28;20194;-80
2021/12/10 02:15:42;;;;;;;206.53;26.40;;;;;;;3.95;100.00;99253.53;5081522;28;20202;-78
2021/12/10 02:18:12;;;;;;;83.47;25.47;;;;;;;4.07;100.00;99247.88;5092829;28;20182;-81
2021/12/10 02:20:49;;;;;;;135.37;24.73;;;;;;;4.07;100.00;99246.16;5076055;28;20237;-78
2021/12/10 02:23:16;;;;;;;101.93;24.60;;;;;;;4.09;100.00;99244.50;5082311;28;20197;-81
2021/12/10 02:25:43;;;;;;;129.00;25.63;;;;;;;4.13;100.00;99240.34;5092852;28;20191;-79
2021/12/10 02:28:13;;;;;;;173.43;27.13;;;;;;;4.21;100.00;99237.13;5086419;28;20198;-77
2021/12/10 02:30:42;;;;;;;150.47;26.20;;;;;;;4.25;100.00;99215.84;5086445;28;20587;-80
2021/12/10 02:33:09;;;;;;;114.77;23.87;;;;;;;4.12;100.00;99216.38;5075687;28;20198;-77
2021/12/10 02:35:37;;;;;;;134.87;23.17;;;;;;;4.05;100.00;99205.91;5072222;28;20227;-77
2021/12/10 02:38:06;;;;;;;145.37;21.50;;;;;;;4.01;100.00;99192.13;5072673;28;20191;-79
2021/12/10 02:40:34;;;;;;;103.53;22.83;;;;;;;3.68;100.00;99139.94;5086452;28;20742;-80
2021/12/10 02:43:04;;;;;;;216.70;23.60;;;;;;;4.02;100.00;99188.75;5092802;28;20246;-78
2021/12/10 02:45:32;;;;;;;108.60;22.40;;;;;;;3.66;100.00;99131.38;5074300;28;20202;-80
2021/12/10 02:48:00;;;;;;;201.03;23.07;;;;;;;3.99;100.00;99176.69;5073325;28;20191;-80
2021/12/10 02:50:29;;;;;;;99.50;22.47;;;;;;;4.01;100.00;99163.94;5073292;28;20198;-79
2021/12/10 02:52:57;;;;;;;132.20;22.60;;;;;;;3.90;100.00;99157.66;5071989;28;20198;-80
2021/12/10 02:55:26;;;;;;;80.63;22.33;;;;;;;3.04;100.00;99020.38;5072340;28;20197;-80
2021/12/10 02:57:54;;;;;;;139.03;24.63;;;;;;;3.95;100.00;99166.34;5088310;28;20197;-80
2021/12/10 03:00:26;;;;;;;212.30;29.93;;;;;;;3.90;100.00;99173.91;5078409;28;20288;-78
2021/12/10 03:02:54;;;;;;;105.40;25.83;;;;;;;3.92;100.00;99184.22;5076879;28;20676;-79
2021/12/10 03:05:21;;;;;;;89.57;22.57;;;;;;;3.88;100.00;99184.97;5089700;28;20186;-77
2021/12/10 03:07:48;;;;;;;110.03;22.30;;;;;;;3.82;100.00;99166.81;5071971;28;20202;-77
2021/12/10 03:10:20;;;;;;;71.27;20.23;;;;;;;3.74;100.00;99160.66;5083363;28;20205;-77
2021/12/10 03:12:48;;;;;;;100.67;21.33;;;;;;;3.70;100.00;99161.38;5091997;28;20197;-80
2021/12/10 03:15:17;;;;;;;65.23;19.40;;;;;;;3.70;100.00;99179.31;5080903;28;20661;-77
2021/12/10 03:17:46;;;;;;;91.93;20.53;;;;;;;3.07;100.00;99070.81;5072506;28;20574;-79
2021/12/10 03:20:17;;;;;;;103.20;20.07;;;;;;;3.79;100.00;99171.88;5082771;28;20316;-80
2021/12/10 03:22:46;;;;;;;98.00;20.43;;;;;;;3.51;100.00;99144.63;5083241;28;20191;-79
2021/12/10 03:25:17;;;;;;;142.83;21.30;;;;;;;3.49;100.00;99200.97;5084060;28;20194;-78
2021/12/10 03:27:44;;;;;;;173.27;32.27;;;;;;;3.66;100.00;99177.50;5071589;28;20191;-77
2021/12/10 03:30:18;;;;;;;203.20;30.27;;;;;;;3.82;100.00;99179.63;5080214;28;20687;-81
2021/12/10 03:32:45;;;;;;;142.70;24.00;;;;;;;3.90;100.00;99158.53;5091828;28;20194;-77
2021/12/10 03:35:15;;;;;;;90.07;23.27;;;;;;;4.03;100.00;99152.03;5091903;28;20221;-79
2021/12/10 03:37:45;;;;;;;90.83;25.30;;;;;;;4.08;100.00;99147.88;5092034;28;20586;-78
2021/12/10 03:40:14;;;;;;;102.17;26.47;;;;;;;3.99;100.00;99138.22;5091948;28;20273;-81
2021/12/10 03:42:42;;;;;;;86.87;25.23;;;;;;;3.97;100.00;99149.28;5080527;28;20201;-80
2021/12/10 03:45:10;;;;;;;100.13;26.53;;;;;;;3.63;100.00;99110.78;5070690;28;20190;-77
2021/12/10 03:47:39;;;;;;;144.80;27.63;;;;;;;3.85;100.00;99174.63;5072578;28;20199;-78
2021/12/10 03:50:07;;;;;;;184.27;24.50;;;;;;;3.76;100.00;99177.78;5071580;28;20198;-81
2021/12/10 03:52:34;;;;;;;164.80;27.90;;;;;;;3.85;100.00;99174.63;5071326;28;20198;-82
2021/12/10 03:55:02;;;;;;;117.10;25.27;;;;;;;3.84;100.00;99168.63;5072440;28;20191;-80
2021/12/10 03:57:29;;;;;;;132.47;26.10;;;;;;;3.89;100.00;99158.47;5071344;28;20195;-78
2021/12/10 03:59:55;;;;;;;152.73;27.43;;;;;;;4.08;100.00;99163.25;5071414;28;20249;-80
2021/12/10 04:02:23;;;;;;;127.43;28.33;;;;;;;4.10;100.00;99171.88;5071388;28;20571;-81
2021/12/10 04:04:52;;;;;;;140.73;35.30;;;;;;;3.91;100.00;99131.19;5071465;28;20256;-81
2021/12/10 04:07:22;;;;;;;222.33;56.73;;;;;;;4.02;100.00;99178.50;5071397;28;20199;-78
2021/12/10 04:09:49;;;;;;;138.07;33.50;;;;;;;3.85;100.00;99174.63;5071475;28;20205;-81
2021/12/10 04:12:17;;;;;;;239.90;40.70;;;;;;;3.78;100.00;99165.03;5072213;28;20203;-81
2021/12/10 04:14:45;;;;;;;121.30;31.80;;;;;;;4.03;100.00;99156.28;5070629;28;20186;-78
2021/12/10 04:17:13;;;;;;;167.23;33.57;;;;;;;4.01;100.00;99153.66;5071974;28;20203;-78
2021/12/10 04:19:41;;;;;;;189.90;40.00;;;;;;;4.10;100.00;99151.38;5090025;28;20217;-80
2021/12/10 04:22:10;;;;;;;134.90;29.50;;;;;;;4.23;100.00;99148.25;5095236;28;20673;-80
2021/12/10 04:24:39;;;;;;;116.60;29.00;;;;;;;4.21;100.00;99147.34;5095256;28;20198;-79
2021/12/10 04:27:09;;;;;;;115.60;32.00;;;;;;;4.14;100.00;99153.16;5085563;28;20256;-78
2021/12/10 04:29:39;;;;;;;149.53;35.93;;;;;;;4.20;100.00;99158.44;5075155;28;20199;-80
2021/12/10 04:32:07;;;;;;;88.43;26.87;;;;;;;4.22;100.00;99166.16;5079633;28;20201;-77
2021/12/10 04:34:34;;;;;;;123.17;28.10;;;;;;;4.16;100.00;99177.16;5074961;28;20195;-80
2021/12/10 04:37:04;;;;;;;152.90;35.60;;;;;;;3.83;100.00;99179.69;5074377;28;20226;-76
2021/12/10 04:39:34;;;;;;;94.70;22.73;;;;;;;3.94;100.00;99190.25;5085766;28;20691;-80
2021/12/10 04:42:01;;;;;;;72.00;25.87;;;;;;;3.74;100.00;99163.22;5086991;28;20234;-78
2021/12/10 04:44:28;;;;;;;143.20;46.60;;;;;;;3.92;100.00;99191.91;5081384;28;20628;-79
2021/12/10 04:46:54;;;;;;;141.43;35.10;;;;;;;3.27;100.00;99110.66;5094200;28;20274;-79
2021/12/10 04:49:21;;;;;;;138.67;38.47;;;;;;;3.77;100.00;99191.47;5085529;28;20202;-77
2021/12/10 04:51:51;;;;;;;78.70;23.00;;;;;;;3.55;100.00;99196.84;5074306;28;20568;-77
2021/12/10 04:54:21;;;;;;;137.90;23.03;;;;;;;3.03;100.00;99115.97;5074359;28;20195;-77
2021/12/10 04:56:52;;;;;;;103.43;33.43;;;;;;;3.63;100.00;99192.81;5074654;28;20191;-79
2021/12/10 04:59:20;;;;;;;109.60;21.07;;;;;;;3.42;100.00;99191.34;5073183;28;20203;-80
2021/12/10 05:01:49;;;;;;;59.77;19.07;;;;;;;3.41;100.00;99181.06;5086091;28;20287;-77
2021/12/10 05:04:16;;;;;;;50.80;16.57;;;;;;;3.55;100.00;99158.41;5094312;28;20198;-80
2021/12/10 05:06:43;;;;;;;104.60;28.63;;;;;;;3.39;100.00;99163.09;5094381;28;20187;-79
2021/12/10 05:09:13;;;;;;;112.93;29.77;;;;;;;3.34;100.00;99154.41;5094609;28;20194;-82
2021/12/10 05:11:40;;;;;;;86.13;28.00;;;;;;;3.19;100.00;99124.94;5094804;28;20577;-78
2021/12/10 05:14:10;;;;;;;75.10;26.97;;;;;;;3.35;100.00;99139.94;5094632;28;20213;-78
2021/12/10 05:16:42;;;;;;;79.80;26.53;;;;;;;3.60;100.00;99172.22;5093618;28;20665;-80
2021/12/10 05:19:10;;;;;;;72.53;24.67;;;;;;;3.64;100.00;99181.72;5094014;28;20753;-80
2021/12/10 05:21:39;;;;;;;65.97;21.03;;;;;;;3.52;100.00;99189.94;5094449;28;20232;-82
2021/12/10 05:24:07;;;;;;;69.97;21.67;;;;;;;3.14;100.00;99135.03;5094021;28;20194;-80
2021/12/10 05:26:35;;;;;;;86.17;21.30;;;;;;;2.96;100.00;99120.00;5094335;28;20202;-80
2021/12/10 05:29:02;;;;;;;163.53;28.27;;;;;;;3.36;100.00;99178.38;5093753;28;20197;-78
2021/12/10 05:31:31;;;;;;;227.87;29.70;;;;;;;3.35;100.00;99186.88;5093967;28;20205;-79
2021/12/10 05:33:57;;;;;;;131.97;19.70;;;;;;;3.35;100.00;99202.25;5093767;28;20716;-81
2021/12/10 05:36:25;;;;;;;69.70;19.57;;;;;;;3.39;100.00;99208.31;5093802;28;20233;-79
2021/12/10 05:38:53;;;;;;;201.97;29.60;;;;;;;3.29;100.00;99207.19;5077085;28;20700;-79
2021/12/10 05:41:20;;;;;;;191.43;26.70;;;;;;;3.07;100.00;99174.09;5073865;28;20278;-77
2021/12/10 05:43:46;;;;;;;107.17;27.77;;;;;;;3.43;100.00;99215.28;5073505;28;20191;-80
2021/12/10 05:46:15;;;;;;;144.80;24.53;;;;;;;3.31;100.00;99220.94;5072555;28;20255;-79
2021/12/10 05:48:45;;;;;;;213.93;28.70;;;;;;;3.49;100.00;99211.22;5089473;28;20194;-78
2021/12/10 05:51:12;;;;;;;155.17;26.93;;;;;;;3.54;100.00;99215.59;5084322;28;20186;-77
2021/12/10 05:53:39;;;;;;;264.77;23.30;;;;;;;3.32;100.00;99222.66;5089606;28;20209;-79
2021/12/10 05:56:06;;;;;;;95.60;21.07;;;;;;;3.53;100.00;99224.13;5090614;28;20577;-79
2021/12/10 05:58:34;;;;;;;163.83;22.30;;;;;;;3.46;100.00;99226.47;5083655;28;20194;-80
2021/12/10 06:01:04;;;;;;;101.67;21.20;;;;;;;3.37;100.00;99221.09;5093327;28;20226;-81
2021/12/10 06:03:32;;;;;;;74.60;20.87;;;;;;;3.28;100.00;99169.59;5075725;28;20665;-77
2021/12/10 06:06:01;;;;;;;71.60;20.07;;;;;;;3.48;100.00;99224.84;5073016;28;20198;-78
2021/12/10 06:08:29;;;;;;;104.23;22.90;;;;;;;3.16;100.00;99173.50;5072864;28;20191;-81
2021/12/10 06:10:58;;;;;;;67.17;17.67;;;;;;;3.41;100.00;99237.44;5073597;28;20242;-82
2021/12/10 06:13:25;;;;;;;73.20;14.63;;;;;;;3.43;100.00;99241.78;5072651;28;20868;-79
2021/12/10 06:15:53;;;;;;;59.97;17.43;;;;;;;3.56;100.00;99239.56;5090968;28;20738;-73
2021/12/10 06:18:20;;;;;;;94.73;22.57;;;;;;;3.71;100.00;99234.91;5093237;28;20197;-78
2021/12/10 06:20:49;;;;;;;70.63;20.67;;;;;;;3.71;100.00;99247.72;5093157;28;20236;-77
2021/12/10 06:23:19;;;;;;;97.50;28.83;;;;;;;3.18;100.00;99189.75;5093331;28;20190;-77
2021/12/10 06:25:46;;;;;;;38.70;13.50;;;;;;;3.63;100.00;99254.31;5094463;28;20202;-74
2021/12/10 06:28:13;;;;;;;198.10;33.37;;;;;;;3.74;100.00;99252.91;5093428;28;20198;-78
2021/12/10 06:30:43;;;;;;;246.83;33.90;;;;;;;3.83;100.00;99242.91;5093706;28;20669;-80
2021/12/10 06:33:13;;;;;;;180.23;26.93;;;;;;;3.65;100.00;99247.50;5094488;28;20687;-76
2021/12/10 06:35:42;;;;;;;243.07;31.13;;;;;;;3.63;100.00;99256.88;5092721;28;20234;-76
2021/12/10 06:38:11;;;;;;;285.77;28.87;;;;;;;3.64;100.00;99261.19;5092632;28;20801;-77
2021/12/10 06:40:42;;;;;;;204.17;24.80;;;;;;;3.72;100.00;99263.13;5091788;28;20696;-76
2021/12/10 06:43:10;;;;;;;61.73;20.70;;;;;;;3.58;100.00;99256.72;5092870;28;20198;-79
2021/12/10 06:45:38;;;;;;;41.77;12.83;;;;;;;3.72;100.00;99245.19;5091834;28;20205;-75
2021/12/10 06:48:08;;;;;;;62.67;20.33;;;;;;;3.42;100.00;99201.59;5093250;28;20194;-76
2021/12/10 06:50:38;;;;;;;89.30;27.27;;;;;;;3.64;100.00;99241.53;5088886;28;20195;-77
2021/12/10 06:53:06;;;;;;;98.93;28.50;;;;;;;3.84;100.00;99219.03;5072350;28;20194;-77
2021/12/10 06:55:34;;;;;;;87.43;32.83;;;;;;;3.69;100.00;99228.84;5072382;28;20191;-77
2021/12/10 06:58:03;;;;;;;110.40;34.43;;;;;;;3.97;100.00;99254.41;5081382;28;20327;-76
2021/12/10 07:00:33;;;;;;;108.60;31.73;;;;;;;3.94;100.00;99282.53;5082072;28;20193;-76
2021/12/10 07:03:00;;;;;;;96.53;27.83;;;;;;;3.93;100.00;99265.41;5081601;28;20636;-75
2021/12/10 07:05:27;;;;;;;48.50;17.40;;;;;;;4.04;100.00;99281.97;5082738;28;20195;-75
2021/12/10 07:07:54;;;;;;;87.27;26.33;;;;;;;3.96;100.00;99257.81;5080270;28;20186;-77
2021/12/10 07:10:21;;;;;;;87.00;26.23;;;;;;;4.18;100.00;99272.97;5081646;28;20601;-76
2021/12/10 07:12:48;;;;;;;44.43;15.27;;;;;;;4.17;100.00;99255.84;5078790;28;20206;-80
2021/12/10 07:15:17;;;;;;;47.07;18.53;;;;;;;4.36;100.00;99273.44;5073422;28;20273;-79
2021/12/10 07:17:47;;;;;;;55.83;19.43;;;;;;;4.45;100.00;99273.72;5071985;28;20210;-76
2021/12/10 07:20:15;;;;;;;46.63;17.20;;;;;;;4.17;100.00;99266.13;5072315;28;20280;-76
2021/12/10 07:22:42;;;;;;;44.43;17.47;;;;;;;4.25;100.00;99280.00;5074342;28;20295;-78
2021/12/10 07:25:10;;;;;;;60.17;19.47;;;;;;;4.30;100.00;99277.56;5071818;28;20199;-76
2021/12/10 07:27:37;;;;;;;66.83;20.97;;;;;;;4.21;100.00;99285.03;5071743;28;20191;-75
2021/12/10 07:30:06;;;;;;;66.80;21.67;;;;;;;4.11;100.00;99270.19;5072153;28;20191;-75
2021/12/10 07:32:35;;;;;;;81.83;26.77;;;;;;;4.15;100.00;99272.88;5071961;28;20266;-77
2021/12/10 07:35:02;;;;;;;46.83;20.00;;;;;;;4.13;100.00;99269.41;5071845;28;20229;-78
2021/12/10 07:37:29;;;;;;;77.50;26.00;;;;;;;3.99;100.00;99261.31;5071763;28;20199;-76
2021/12/10 07:39:56;;;;;;;47.67;19.03;;;;;;;4.31;100.00;99285.31;5071833;28;20194;-76
2021/12/10 07:42:22;;;;;;;32.63;14.43;;;;;;;4.28;100.00;99290.34;5071410;28;20230;-78
2021/12/10 07:44:50;;;;;;;35.03;13.70;;;;;;;4.23;100.00;99281.66;5071592;28;20194;-75
2021/12/10 07:47:17;;;;;;;55.80;25.20;;;;;;;4.29;100.00;99296.34;5075742;28;20186;-76
2021/12/10 07:49:45;;;;;;;33.43;17.23;;;;;;;4.44;100.00;99307.00;5081439;28;20199;-72
2021/12/10 07:52:18;;;;;;;45.53;18.90;;;;;;;4.35;100.00;99292.22;5077075;28;20195;-74
2021/12/10 07:54:47;;;;;;;59.47;24.97;;;;;;;4.52;100.00;99309.78;5074776;28;20227;-76
2021/12/10 07:57:15;;;;;;;40.97;15.87;;;;;;;4.45;100.00;99314.78;5074799;28;20285;-74
2021/12/10 07:59:41;;;;;;;34.77;17.10;;;;;;;4.37;100.00;99312.81;5075358;28;20724;-77
2021/12/10 08:02:09;;;;;;;31.93;15.13;;;;;;;4.41;100.00;99304.38;5075713;28;20233;-74
2021/12/10 08:04:36;;;;;;;41.97;13.80;;;;;;;4.46;100.00;99292.50;5075137;28;20195;-77
2021/12/10 08:07:05;;;;;;;37.87;16.70;;;;;;;4.63;100.00;99298.97;5074869;28;20199;-74
2021/12/10 08:09:32;;;;;;;43.53;16.77;;;;;;;4.70;100.00;99295.75;5074092;28;20191;-75
2021/12/10 08:11:59;;;;;;;42.53;19.27;;;;;;;4.95;100.00;99297.22;5074270;28;20191;-77
2021/12/10 08:14:26;;;;;;;38.20;19.53;;;;;;;5.09;100.00;99292.41;5075134;28;20327;-75
2021/12/10 08:16:53;;;;;;;33.30;16.77;;;;;;;5.17;100.00;99293.47;5074248;28;20203;-76
2021/12/10 08:19:19;;;;;;;47.20;22.10;;;;;;;5.18;100.00;99290.03;5074426;28;20674;-75
2021/12/10 08:21:46;;;;;;;40.00;18.33;;;;;;;5.22;100.00;99297.00;5074999;28;20211;-75
2021/12/10 08:24:14;;;;;;;41.90;17.67;;;;;;;5.22;100.00;99303.00;5074747;28;20187;-78
2021/12/10 08:26:42;;;;;;;79.33;31.30;;;;;;;5.48;100.00;99295.91;5074610;28;20187;-75
2021/12/10 08:29:10;;;;;;;58.33;26.63;;;;;;;5.58;100.00;99305.53;5075235;28;20190;-75
2021/12/10 08:31:37;;;;;;;47.27;21.37;;;;;;;5.38;100.00;99311.94;5073274;28;20191;-77
2021/12/10 08:34:05;;;;;;;31.77;17.97;;;;;;;5.42;100.00;99311.19;5092048;28;20680;-75
2021/12/10 08:36:33;;;;;;;41.37;20.83;;;;;;;5.44;100.00;99310.38;5095036;28;20218;-72
2021/12/10 08:39:00;;;;;;;20.33;12.30;;;;;;;5.32;100.00;99324.63;5095065;28;20191;-76
2021/12/10 08:41:33;;;;;;;50.07;26.57;;;;;;;5.46;100.00;99313.84;5093911;28;20222;-76
2021/12/10 08:44:00;;;;;;;40.30;21.20;;;;;;;5.56;100.00;99314.94;5075552;28;20206;-76
2021/12/10 08:46:28;;;;;;;35.23;21.10;;;;;;;5.62;100.00;99316.75;5092095;28;20660;-77
2021/12/10 08:48:56;;;;;;;37.40;15.63;;;;;;;5.57;100.00;99308.06;5093552;28;20197;-76
2021/12/10 08:51:29;;;;;;;72.27;33.40;;;;;;;5.83;100.00;99314.66;5093427;28;20202;-75
2021/12/10 08:53:56;;;;;;;84.37;36.20;;;;;;;5.95;100.00;99322.69;5085412;28;20482;-77
2021/12/10 08:56:23;;;;;;;40.77;19.03;;;;;;;6.17;100.00;99308.56;5074269;28;20681;-76
2021/12/10 08:58:52;;;;;;;35.17;17.07;;;;;;;5.90;100.00;99240.25;5074425;28;20193;-76
2021/12/10 09:01:22;;;;;;;38.53;19.77;;;;;;;6.39;100.00;99329.56;5074146;28;20226;-73
2021/12/10 09:03:51;;;;;;;28.93;16.20;;;;;;;6.70;100.00;99330.16;5073348;28;20202;-76
2021/12/10 09:06:20;;;;;;;18.77;13.03;;;;;;;6.94;100.00;99320.28;5073991;28;20214;-76
2021/12/10 09:08:47;;;;;;;23.43;12.80;;;;;;;6.98;100.00;99337.53;5073966;28;20198;-76
2021/12/10 09:11:15;;;;;;;25.60;14.47;;;;;;;7.31;100.00;99353.53;5074770;28;20203;-74
2021/12/10 09:13:42;;;;;;;26.33;14.17;;;;;;;7.19;100.00;99357.63;5080696;28;20190;-75
2021/12/10 09:16:19;;;;;;;30.43;18.47;;;;;;;7.27;100.00;99340.59;5074077;28;20199;-74
2021/12/10 09:18:46;;;;;;;26.93;12.93;;;;;;;7.29;100.00;99328.59;5073822;28;20191;-73
2021/12/10 09:21:13;;;;;;;19.57;12.70;;;;;;;7.45;100.00;99333.16;5077205;28;20215;-75
2021/12/10 09:23:40;;;;;;;24.03;12.53;;;;;;;7.22;100.00;99337.94;5078827;28;20198;-78
2021/12/10 09:26:11;;;;;;;16.93;11.10;;;;;;;7.43;100.00;99338.28;5079043;28;20202;-74
2021/12/10 09:28:40;;;;;;;14.23;9.47;;;;;;;7.55;100.00;99339.31;5081132;28;20191;-75
2021/12/10 09:31:08;;;;;;;17.13;11.67;;;;;;;7.55;100.00;99326.41;5089540;28;20186;-75
2021/12/10 09:33:37;;;;;;;26.70;15.53;;;;;;;7.51;100.00;99314.31;5085986;28;20206;-74
2021/12/10 09:36:06;;;;;;;28.47;15.53;;;;;;;7.79;100.00;99300.94;5075777;28;20269;-74
2021/12/10 09:38:33;;;;;;;21.90;12.53;;;;;;;7.80;100.00;99257.13;5087757;28;20202;-78
2021/12/10 09:41:05;;;;;;;17.40;9.63;;;;;;;8.09;100.00;99280.69;5092622;28;20202;-76
2021/12/10 09:43:33;;;;;;;12.80;8.27;;;;;;;7.37;100.00;99208.38;5087659;28;20201;-74
2021/12/10 09:46:01;;;;;;;13.00;9.90;;;;;;;7.32;100.00;99244.41;5073028;28;20198;-76
2021/12/10 09:48:28;;;;;;;16.73;9.63;;;;;;;7.72;100.00;99234.63;5078911;28;20676;-74
2021/12/10 09:50:59;;;;;;;14.33;8.83;;;;;;;7.34;100.00;99224.69;5093034;28;20193;-75
2021/12/10 09:53:29;;;;;;;14.93;8.93;;;;;;;6.96;100.00;99212.94;5074205;28;20202;-72
2021/12/10 09:55:56;;;;;;;17.40;10.03;;;;;;;6.95;100.00;99213.81;5077702;28;20264;-74
2021/12/10 09:58:25;;;;;;;16.43;10.50;;;;;;;7.10;100.00;99219.16;5081769;28;20197;-74
2021/12/10 10:00:56;;;;;;;14.87;9.43;;;;;;;7.40;100.00;99229.94;5093221;28;20754;-73
2021/12/10 10:03:28;;;;;;;12.67;8.00;;;;;;;6.87;100.00;99199.94;5093123;28;20222;-73
2021/12/10 10:05:56;;;;;;;11.33;7.07;;;;;;;7.02;100.00;99223.34;5092865;28;20206;-72
2021/12/10 10:08:26;;;;;;;20.07;9.77;;;;;;;7.29;100.00;99230.63;5091488;28;20217;-75
2021/12/10 10:10:57;;;;;;;18.53;10.17;;;;;;;7.60;100.00;99239.66;5092941;28;20213;-73
2021/12/10 10:13:28;;;;;;;52.20;21.17;;;;;;;7.97;100.00;99234.09;5075272;28;20201;-73
2021/12/10 10:15:58;;;;;;;10.93;7.20;;;;;;;7.88;100.00;99234.00;5072725;28;20194;-73
2021/12/10 10:18:26;;;;;;;18.30;8.77;;;;;;;7.46;100.00;99173.25;5072343;28;20724;-74
2021/12/10 10:20:57;;;;;;;15.97;9.20;;;;;;;8.14;100.00;99221.34;5077563;28;20215;-74
2021/12/10 10:23:25;;;;;;;17.73;10.50;;;;;;;8.31;100.00;99225.03;5072294;28;20227;-75
2021/12/10 10:25:56;;;;;;;20.70;10.93;;;;;;;8.44;100.00;99226.88;5073328;28;20195;-74
2021/12/10 10:28:24;;;;;;;28.27;14.23;;;;;;;8.62;100.00;99239.97;5072442;28;20217;-74
2021/12/10 10:30:57;;;;;;;16.83;11.47;;;;;;;8.68;100.00;99252.94;5072717;28;20195;-74
2021/12/10 10:33:24;;;;;;;22.20;11.77;;;;;;;8.53;100.00;99237.28;5072206;28;20226;-75
2021/12/10 10:35:55;;;;;;;17.90;10.10;;;;;;;8.68;100.00;99242.59;5079693;28;20218;-75
2021/12/10 10:38:23;;;;;;;16.00;9.90;;;;;;;8.57;100.00;99253.69;5092268;28;20626;-72
2021/12/10 10:40:55;;;;;;;22.17;11.93;;;;;;;8.66;100.00;99264.13;5082009;28;20204;-75
2021/12/10 10:43:27;;;;;;;15.77;8.77;;;;;;;8.44;100.00;99271.66;5077835;28;20217;-75
2021/12/10 10:45:55;;;;;;;16.87;7.30;;;;;;;7.63;100.00;99262.91;5082918;28;20206;-73
2021/12/10 10:48:23;;;;;;;26.57;13.07;;;;;;;7.59;100.00;99263.72;5072037;28;20228;-73
2021/12/10 10:50:53;;;;;;;23.73;11.73;;;;;;;7.51;100.00;99255.00;5074736;28;20187;-74
2021/12/10 10:53:27;;;;;;;18.03;10.20;;;;;;;7.29;100.00;99230.63;5086891;28;20190;-74
2021/12/10 10:55:56;;;;;;;21.63;11.20;;;;;;;7.40;100.00;99209.28;5080844;28;20289;-75
2021/12/10 10:58:30;;;;;;;32.47;16.53;;;;;;;7.21;100.00;99199.56;5071974;28;20194;-75
2021/12/10 11:01:03;;;;;;;47.93;18.07;;;;;;;7.34;100.00;99192.88;5082616;28;20290;-76
2021/12/10 11:03:37;;;;;;;41.20;17.57;;;;;;;7.65;100.00;99188.97;5079443;28;20215;-76
2021/12/10 11:06:08;;;;;;;67.50;28.27;;;;;;;7.72;100.00;99212.28;5085765;28;20198;-76
2021/12/10 11:08:39;;;;;;;45.87;23.10;;;;;;;7.57;100.00;99216.38;5092728;28;20201;-78
2021/12/10 11:11:11;;;;;;;46.47;18.57;;;;;;;7.63;100.00;99214.78;5088960;28;20194;-77
2021/12/10 11:13:39;;;;;;;30.83;12.43;;;;;;;7.64;100.00;99226.78;5076356;28;20210;-77
2021/12/10 11:16:09;;;;;;;29.73;14.80;;;;;;;7.75;100.00;99211.44;5090507;28;20205;-76
2021/12/10 11:18:43;;;;;;;30.43;15.33;;;;;;;7.65;100.00;99207.03;5082664;28;20205;-77
2021/12/10 11:21:10;;;;;;;31.17;16.30;;;;;;;7.51;100.00;99203.41;5091936;28;20758;-78
2021/12/10 11:23:41;;;;;;;20.20;10.40;;;;;;;8.24;100.00;99184.47;5087017;28;20723;-73
2021/12/10 11:26:08;;;;;;;33.47;15.70;;;;;;;7.83;100.00;99173.72;5079908;28;20194;-75
2021/12/10 11:28:39;;;;;;;32.40;14.87;;;;;;;7.87;100.00;99199.56;5072170;28;20604;-76
2021/12/10 11:31:09;;;;;;;46.37;20.07;;;;;;;8.60;100.00;99176.19;5072592;28;20206;-76